ストックホルム/アーランダ の空港の天気 - METARとTAF

ストックホルム・アーランダ空港 ( ESSA / ARN ) - スウェーデン ストックホルム
飛行場実況気象(Metar)
観測時間01/20 02:50 CET (01/20 01:50 UTC)
風向・風速西 4m/s
視程10km以上
天気現象
なし
気温-8℃
湿度79%
気圧1010hPa
METARESSA 200150Z 28007KT CAVOK M08/M11 Q1010 R01L/19//58 R08/19//51 R01R/SNOCLO NOSIG
過去の天気等 Google飛行場航空写真 Wunderground天気予報

過去48時間のMETAR

飛行場予報(TAF)
発表時間: 1/20 00:30 CET (1/19 23:30 UTC)
予報対象時間: 20日1時 CET ~ 21日1時 CET
風向・風速西 4m/s
視程10km以上
なし
TAF ESSA 192330Z 2000/2024 28007KT CAVOK